Scottsville, Kentucky
Current Conditions -  °F | °C
As of 2:53 AM on Thursday 27 Nov 2014 (Local Time) from KBWG Reporting Station
Light Snow Light Snow  
Wind Chill: 28°   Ceiling: 700
Heat Index: 35°   Visibility: 5mi
Dew Point: 32°   Wind: 9mph
Humidity: 89%   Direction: 300°WNW
Pressure: 30.15"   Gusts: NA
Location:  36.75°N, 86.19°W
Report Text: KBWG 270853Z AUTO 30008KT 5SM -SN BR BKN007 BKN013 OVC019 02/00 A3015 RMK AO2 UPB0759E21SNB21 CIG 006V011 SLP212 P0001 60001 T00170000 53030
Loading
Personal Weather Stations






























Interactive Weather Map New forecast layout! Learn more

10-Day Weather Forecast

Advertisements
Track Severe Weather on mobile